Time;durP1;ratioP1;P1;durP2;ratioP2;P2;SDS_P1;SDS_P2;PMS_P1;PMS_P2;Temp;Humidity;BMP_temperature;BMP_pressure;BME280_temperature;BME280_humidity;BME280_pressure;Samples;Min_cycle;Max_cycle;Signal;HPM_P1;HPM_P2
2022/11/05 00:10:02;;;;;;;38.88;20.27;;;;;;;5.56;100.00;101427.13;5054261;28;20834;-46
2022/11/05 00:17:56;;;;;;;34.65;19.98;;;;;;;5.34;100.00;101428.41;5054141;28;20107;-47
2022/11/05 00:20:21;;;;;;;32.97;20.00;;;;;;;5.18;100.00;101433.41;5054714;28;20033;-46
2022/11/05 00:25:30;;;;;;;60.33;34.25;;;;;;;5.11;100.00;101435.56;5054178;28;20056;-47
2022/11/05 00:28:00;;;;;;;53.00;30.17;;;;;;;5.06;100.00;101431.84;5054386;28;20416;-44
2022/11/05 00:30:26;;;;;;;41.13;24.30;;;;;;;5.03;100.00;101434.19;5054348;28;20035;-47
2022/11/05 00:32:51;;;;;;;42.08;23.13;;;;;;;4.96;100.00;101437.19;5053920;28;20422;-47
2022/11/05 00:35:19;;;;;;;58.88;33.78;;;;;;;4.90;100.00;101445.31;5054325;28;20468;-46
2022/11/05 00:37:45;;;;;;;51.17;29.80;;;;;;;4.89;100.00;101442.69;5054132;28;20021;-44
2022/11/05 00:40:12;;;;;;;61.65;38.15;;;;;;;4.85;100.00;101449.25;5054040;28;20017;-48
2022/11/05 00:45:27;;;;;;;54.40;29.65;;;;;;;4.75;100.00;101459.69;5053834;28;20072;-45
2022/11/05 00:50:37;;;;;;;77.55;47.47;;;;;;;4.69;100.00;101465.31;5054765;28;20043;-46
2022/11/05 00:53:03;;;;;;;69.35;36.55;;;;;;;4.63;100.00;101459.81;5053142;28;20025;-44
2022/11/05 00:55:38;;;;;;;102.05;52.47;;;;;;;4.56;100.00;101463.63;5054257;28;20021;-47
2022/11/05 00:58:10;;;;;;;58.28;33.78;;;;;;;4.57;100.00;101460.31;5053733;28;20021;-47
2022/11/05 01:00:38;;;;;;;68.05;38.72;;;;;;;4.48;100.00;101466.47;5053360;28;20028;-46
2022/11/05 01:03:09;;;;;;;45.55;28.67;;;;;;;4.57;100.00;101469.63;5053291;28;20028;-46
2022/11/05 01:05:43;;;;;;;80.78;45.08;;;;;;;4.55;100.00;101469.53;5053819;28;20028;-46
2022/11/05 01:08:10;;;;;;;56.03;32.85;;;;;;;4.51;100.00;101475.22;5053173;28;20021;-45
2022/11/05 01:10:40;;;;;;;59.72;33.97;;;;;;;4.49;100.00;101470.81;5053878;28;20024;-47
2022/11/05 01:13:06;;;;;;;62.65;34.80;;;;;;;4.52;100.00;101471.91;5052874;28;20025;-46
2022/11/05 01:15:31;;;;;;;53.75;30.67;;;;;;;4.54;100.00;101477.09;5054226;28;20036;-48
2022/11/05 01:17:56;;;;;;;62.80;34.13;;;;;;;4.56;100.00;101486.63;5053409;28;20029;-47
2022/11/05 01:20:22;;;;;;;70.45;40.70;;;;;;;4.64;100.00;101484.56;5052924;28;20032;-47
2022/11/05 01:22:47;;;;;;;76.15;42.85;;;;;;;4.63;100.00;101489.56;5053516;28;20083;-47
2022/11/05 01:25:13;;;;;;;68.75;36.78;;;;;;;4.60;100.00;101491.13;5053129;28;20082;-47
2022/11/05 01:27:38;;;;;;;74.25;40.80;;;;;;;4.67;100.00;101497.50;5052937;28;20045;-46
2022/11/05 01:30:06;;;;;;;75.32;44.72;;;;;;;4.68;100.00;101499.28;5053350;28;20033;-48
2022/11/05 01:32:33;;;;;;;63.67;39.38;;;;;;;4.71;100.00;101503.69;5053372;28;20025;-47
2022/11/05 01:34:58;;;;;;;73.45;42.78;;;;;;;4.71;100.00;101496.03;5052474;28;20024;-46
2022/11/05 01:37:24;;;;;;;83.47;48.85;;;;;;;4.81;100.00;101500.06;5053247;28;20376;-48
2022/11/05 01:39:49;;;;;;;66.15;39.30;;;;;;;4.81;100.00;101506.06;5053155;28;20500;-45
2022/11/05 01:42:23;;;;;;;84.40;46.97;;;;;;;4.87;100.00;101506.44;5051988;28;20048;-47
2022/11/05 01:44:56;;;;;;;100.95;61.25;;;;;;;4.84;100.00;101508.81;5053349;28;20021;-44
2022/11/05 01:47:48;;;;;;;72.75;41.45;;;;;;;4.90;100.00;101500.66;5053005;28;20037;-46
2022/11/05 01:50:44;;;;;;;59.72;36.55;;;;;;;4.87;100.00;101501.34;5052211;28;20033;-45
2022/11/05 01:53:22;;;;;;;60.08;31.33;;;;;;;4.89;100.00;101499.78;5052886;28;20028;-46
2022/11/05 01:55:56;;;;;;;51.90;29.17;;;;;;;4.88;100.00;101502.22;5052239;28;20111;-46
2022/11/05 01:58:25;;;;;;;55.55;31.80;;;;;;;4.87;100.00;101506.44;5052926;28;20540;-46
2022/11/05 02:00:51;;;;;;;51.50;31.17;;;;;;;4.85;100.00;101495.25;5052810;28;20107;-47
2022/11/05 02:03:18;;;;;;;57.80;29.17;;;;;;;4.88;100.00;101494.53;5051723;28;20465;-47
2022/11/05 02:05:45;;;;;;;49.72;27.02;;;;;;;4.84;100.00;101490.03;5052983;28;20029;-47
2022/11/05 02:08:18;;;;;;;39.53;23.95;;;;;;;4.82;100.00;101484.84;5052657;28;20091;-48
2022/11/05 02:10:44;;;;;;;66.25;34.28;;;;;;;4.83;100.00;101486.63;5051949;28;20436;-44
2022/11/05 02:13:09;;;;;;;48.55;26.75;;;;;;;4.73;100.00;101476.59;5052008;28;20025;-46
2022/11/05 02:15:59;;;;;;;57.28;30.42;;;;;;;4.75;100.00;101485.22;5052343;28;20032;-43
2022/11/05 02:18:44;;;;;;;51.75;28.10;;;;;;;4.75;100.00;101490.34;5052270;28;20468;-48
2022/11/05 02:21:35;;;;;;;56.42;27.63;;;;;;;4.74;100.00;101498.81;5052554;28;20037;-46
2022/11/05 02:24:19;;;;;;;39.72;22.80;;;;;;;4.67;100.00;101494.09;5052108;28;20086;-48
2022/11/05 02:26:56;;;;;;;42.45;22.98;;;;;;;4.65;100.00;101493.09;5052792;28;20040;-44
2022/11/05 02:29:46;;;;;;;43.95;23.02;;;;;;;4.61;100.00;101492.03;5052675;28;20036;-46
2022/11/05 02:32:25;;;;;;;38.97;22.92;;;;;;;4.61;100.00;101497.13;5052073;28;20040;-46
2022/11/05 02:35:10;;;;;;;45.20;22.50;;;;;;;4.56;100.00;101486.63;5052814;28;20032;-47
2022/11/05 02:37:43;;;;;;;45.03;22.25;;;;;;;4.54;100.00;101495.84;5051978;28;20041;-47
2022/11/05 02:40:23;;;;;;;41.50;22.45;;;;;;;4.50;100.00;101488.78;5052135;28;20074;-47
2022/11/05 02:43:07;;;;;;;46.40;23.92;;;;;;;4.49;100.00;101489.53;5052659;28;20469;-45
2022/11/05 02:45:56;;;;;;;47.30;24.10;;;;;;;4.45;100.00;101487.59;5051728;28;20033;-47
2022/11/05 02:48:36;;;;;;;53.30;26.05;;;;;;;4.44;100.00;101496.03;5052442;28;20049;-45
2022/11/05 02:51:17;;;;;;;49.55;24.42;;;;;;;4.40;100.00;101488.97;5052119;28;20095;-47
2022/11/05 02:53:56;;;;;;;50.42;25.13;;;;;;;4.38;100.00;101485.44;5052087;28;20047;-44
2022/11/05 02:56:30;;;;;;;44.78;23.90;;;;;;;4.34;100.00;101486.91;5052449;28;20086;-47
2022/11/05 02:58:55;;;;;;;45.53;26.67;;;;;;;4.35;100.00;101482.66;5051147;28;20451;-46
2022/11/05 03:01:20;;;;;;;66.18;29.20;;;;;;;4.39;100.00;101482.06;5052436;28;20524;-46
2022/11/05 03:03:57;;;;;;;44.28;26.05;;;;;;;4.26;100.00;101483.84;5052340;28;20029;-46
2022/11/05 03:06:35;;;;;;;51.20;27.83;;;;;;;4.28;100.00;101477.16;5051697;28;20028;-46
2022/11/05 03:09:18;;;;;;;53.38;27.92;;;;;;;4.26;100.00;101483.84;5051922;28;20381;-46
2022/11/05 03:12:12;;;;;;;50.67;30.73;;;;;;;4.27;100.00;101480.53;5052212;28;20025;-43
2022/11/05 03:14:50;;;;;;;56.03;30.77;;;;;;;4.27;100.00;101475.41;5051784;28;20087;-45
2022/11/05 03:17:32;;;;;;;58.90;32.00;;;;;;;4.26;100.00;101483.84;5051946;28;20025;-47
2022/11/05 03:20:06;;;;;;;58.67;32.38;;;;;;;4.27;100.00;101479.63;5051108;28;20078;-47
2022/11/05 03:22:37;;;;;;;57.13;32.20;;;;;;;4.25;100.00;101489.72;5051967;28;20465;-46
2022/11/05 03:25:11;;;;;;;66.05;32.95;;;;;;;4.25;100.00;101487.19;5052470;28;20044;-47
2022/11/05 03:27:40;;;;;;;54.80;32.00;;;;;;;4.19;100.00;101484.22;5054907;28;20384;-45
2022/11/05 03:30:09;;;;;;;56.60;31.63;;;;;;;4.19;100.00;101486.78;5055457;28;20172;-43
2022/11/05 03:32:39;;;;;;;67.38;32.55;;;;;;;4.13;100.00;101496.56;5055541;28;20033;-46
2022/11/05 03:35:17;;;;;;;62.78;33.40;;;;;;;4.18;100.00;101492.66;5054932;28;20021;-47
2022/11/05 03:37:46;;;;;;;64.60;33.70;;;;;;;4.12;100.00;101488.03;5055725;28;20025;-47
2022/11/05 03:40:14;;;;;;;64.45;34.90;;;;;;;4.10;100.00;101491.28;5055078;28;20043;-48
2022/11/05 03:42:45;;;;;;;60.60;34.63;;;;;;;4.03;100.00;101483.97;5054752;28;20029;-47
2022/11/05 03:45:17;;;;;;;61.55;35.33;;;;;;;4.09;100.00;101492.06;5055388;28;20017;-45
2022/11/05 03:47:46;;;;;;;62.88;36.85;;;;;;;4.08;100.00;101496.28;5054491;28;20106;-47
2022/11/05 03:50:31;;;;;;;66.93;37.38;;;;;;;4.09;100.00;101489.50;5055119;28;20424;-47
2022/11/05 03:53:06;;;;;;;65.20;36.42;;;;;;;4.02;100.00;101493.31;5054978;28;20033;-47
2022/11/05 03:55:39;;;;;;;67.95;36.72;;;;;;;4.00;100.00;101501.66;5054441;28;20487;-47
2022/11/05 03:58:05;;;;;;;71.78;38.47;;;;;;;4.02;100.00;101497.53;5055131;28;20024;-46
2022/11/05 04:00:31;;;;;;;69.13;39.58;;;;;;;3.99;100.00;101492.22;5055141;28;20087;-47
2022/11/05 04:02:56;;;;;;;83.53;40.28;;;;;;;4.00;100.00;101488.91;5054126;28;20059;-46
2022/11/05 04:05:22;;;;;;;70.55;40.22;;;;;;;3.98;100.00;101493.00;5055034;28;20059;-44
2022/11/05 04:13:23;;;;;;;73.22;39.33;;;;;;;3.90;100.00;101497.59;5054933;28;20506;-45
2022/11/05 04:18:35;;;;;;;87.50;43.47;;;;;;;3.88;100.00;101505.13;5055335;28;20106;-46
2022/11/05 04:26:28;;;;;;;76.60;45.33;;;;;;;3.84;100.00;101518.47;5055014;28;20048;-46
2022/11/05 04:31:37;;;;;;;84.57;47.58;;;;;;;3.79;100.00;101519.81;5054162;28;20040;-48
2022/11/05 04:34:02;;;;;;;95.85;48.33;;;;;;;3.80;100.00;101519.06;5054269;28;20013;-46
2022/11/05 04:36:28;;;;;;;79.90;48.47;;;;;;;3.78;100.00;101518.03;5053717;28;20052;-46
2022/11/05 04:38:53;;;;;;;85.15;48.05;;;;;;;3.74;100.00;101513.53;5053273;28;20017;-46
2022/11/05 04:41:18;;;;;;;81.07;48.03;;;;;;;3.75;100.00;101525.50;5054519;28;20037;-47
2022/11/05 04:43:44;;;;;;;85.82;49.33;;;;;;;3.70;100.00;101519.19;5054371;28;20108;-46
2022/11/05 04:46:09;;;;;;;94.10;49.58;;;;;;;3.70;100.00;101524.31;5053400;28;20118;-46
2022/11/05 04:48:35;;;;;;;83.18;50.33;;;;;;;3.72;100.00;101526.19;5054359;28;20082;-46
2022/11/05 04:51:00;;;;;;;91.35;49.88;;;;;;;3.72;100.00;101523.63;5053129;28;20025;-45
2022/11/05 04:53:26;;;;;;;89.90;51.10;;;;;;;3.68;100.00;101524.22;5054240;28;20093;-46
2022/11/05 04:55:51;;;;;;;109.10;54.45;;;;;;;3.71;100.00;101528.63;5054210;28;20021;-47
2022/11/05 04:58:16;;;;;;;106.38;56.17;;;;;;;3.74;100.00;101534.78;5053198;28;20357;-48
2022/11/05 05:00:42;;;;;;;96.13;55.90;;;;;;;3.73;100.00;101537.25;5053917;28;20033;-47
2022/11/05 05:03:07;;;;;;;92.50;53.33;;;;;;;3.68;100.00;101536.94;5053725;28;20396;-45
2022/11/05 05:05:32;;;;;;;85.13;50.90;;;;;;;3.65;100.00;101530.75;5053174;28;20040;-47
2022/11/05 05:08:04;;;;;;;93.95;52.60;;;;;;;3.67;100.00;101540.28;5053600;28;20024;-47
2022/11/05 05:10:30;;;;;;;92.18;53.75;;;;;;;3.62;100.00;101541.63;5053994;28;20040;-46
2022/11/05 05:12:56;;;;;;;85.95;52.92;;;;;;;3.60;100.00;101532.97;5052909;28;20029;-48
2022/11/05 05:15:21;;;;;;;89.32;53.13;;;;;;;3.59;100.00;101541.38;5053740;28;20024;-46
2022/11/05 05:17:51;;;;;;;84.53;52.05;;;;;;;3.56;100.00;101536.09;5053785;28;20028;-45
2022/11/05 05:23:00;;;;;;;86.47;55.05;;;;;;;3.57;100.00;101542.97;5053585;28;20082;-46
2022/11/05 05:25:26;;;;;;;93.70;53.28;;;;;;;3.56;100.00;101546.28;5053266;28;20029;-46
2022/11/05 05:27:51;;;;;;;87.63;54.05;;;;;;;3.54;100.00;101547.84;5053078;28;20116;-48
2022/11/05 05:30:16;;;;;;;91.30;54.95;;;;;;;3.57;100.00;101548.94;5053225;28;20102;-47
2022/11/05 05:32:42;;;;;;;98.55;56.22;;;;;;;3.55;100.00;101558.16;5053244;28;20059;-48
2022/11/05 05:35:08;;;;;;;99.80;54.40;;;;;;;3.53;100.00;101554.59;5052461;28;20025;-46
2022/11/05 05:37:33;;;;;;;93.80;54.85;;;;;;;3.50;100.00;101556.06;5053196;28;20025;-45
2022/11/05 05:39:58;;;;;;;88.53;53.97;;;;;;;3.49;100.00;101551.75;5053002;28;20055;-47
2022/11/05 05:42:23;;;;;;;94.45;55.92;;;;;;;3.50;100.00;101549.31;5052598;28;20040;-48
2022/11/05 05:44:49;;;;;;;87.70;54.13;;;;;;;3.48;100.00;101563.59;5053238;28;20032;-46
2022/11/05 05:47:14;;;;;;;98.60;55.58;;;;;;;3.54;100.00;101561.47;5051935;28;20114;-43
2022/11/05 05:49:39;;;;;;;99.13;55.42;;;;;;;3.54;100.00;101555.47;5052896;28;20464;-46
2022/11/05 05:52:05;;;;;;;99.22;55.05;;;;;;;3.52;100.00;101562.16;5052857;28;20031;-46
2022/11/05 05:54:30;;;;;;;101.75;55.05;;;;;;;3.52;100.00;101559.59;5052424;28;20488;-48
2022/11/05 05:56:56;;;;;;;96.15;54.33;;;;;;;3.54;100.00;101553.84;5052912;28;20079;-47
2022/11/05 05:59:22;;;;;;;100.00;55.45;;;;;;;3.51;100.00;101558.72;5053106;28;20029;-45
2022/11/05 06:01:47;;;;;;;100.57;56.58;;;;;;;3.53;100.00;101569.91;5052234;28;20118;-47
2022/11/05 06:04:12;;;;;;;103.72;55.10;;;;;;;3.57;100.00;101560.81;5052649;28;20115;-47
2022/11/05 06:06:38;;;;;;;96.32;54.75;;;;;;;3.56;100.00;101565.00;5052789;28;20024;-48
2022/11/05 06:09:03;;;;;;;97.10;54.53;;;;;;;3.55;100.00;101554.72;5051779;28;20021;-46
2022/11/05 06:11:28;;;;;;;97.93;52.72;;;;;;;3.55;100.00;101555.63;5052856;28;20025;-47
2022/11/05 06:13:54;;;;;;;86.78;51.00;;;;;;;3.52;100.00;101560.47;5052687;28;20049;-47
2022/11/05 06:16:19;;;;;;;93.35;52.67;;;;;;;3.54;100.00;101558.94;5052150;28;20104;-46
2022/11/05 06:18:45;;;;;;;91.60;51.97;;;;;;;3.51;100.00;101568.94;5052757;28;20024;-45
2022/11/05 06:21:14;;;;;;;81.05;50.95;;;;;;;3.53;100.00;101571.56;5052034;28;20033;-47
2022/11/05 06:23:41;;;;;;;91.78;50.10;;;;;;;3.48;100.00;101573.78;5052243;28;20072;-46
2022/11/05 06:26:17;;;;;;;89.15;51.25;;;;;;;3.50;100.00;101577.34;5052187;28;20025;-47
2022/11/05 06:28:43;;;;;;;86.10;49.28;;;;;;;3.48;100.00;101572.91;5052623;28;20029;-47
2022/11/05 06:31:09;;;;;;;86.60;49.95;;;;;;;3.45;100.00;101574.47;5051727;28;20048;-47
2022/11/05 06:33:34;;;;;;;87.05;52.60;;;;;;;3.49;100.00;101577.25;5052497;28;20037;-45
2022/11/05 06:36:01;;;;;;;92.82;52.83;;;;;;;3.46;100.00;101577.91;5052229;28;20105;-47
2022/11/05 06:38:28;;;;;;;93.15;51.70;;;;;;;3.49;100.00;101578.13;5052147;28;20025;-45
2022/11/05 06:40:56;;;;;;;90.03;50.00;;;;;;;3.46;100.00;101578.78;5052323;28;20021;-43
2022/11/05 06:43:21;;;;;;;93.93;50.25;;;;;;;3.47;100.00;101574.56;5052234;28;20036;-43
2022/11/05 06:45:47;;;;;;;91.22;50.65;;;;;;;3.48;100.00;101581.44;5051713;28;20025;-47
2022/11/05 06:48:12;;;;;;;85.22;50.70;;;;;;;3.52;100.00;101582.53;5052320;28;20032;-46
2022/11/05 06:50:37;;;;;;;86.57;49.05;;;;;;;3.48;100.00;101578.00;5051821;28;20045;-46
2022/11/05 06:53:04;;;;;;;90.80;49.63;;;;;;;3.49;100.00;101580.66;5052267;28;20482;-45
2022/11/05 06:55:30;;;;;;;95.68;51.15;;;;;;;3.49;100.00;101579.78;5052481;28;20021;-45
2022/11/05 06:57:57;;;;;;;83.72;49.72;;;;;;;3.49;100.00;101583.22;5051243;28;20448;-44
2022/11/05 07:00:22;;;;;;;84.80;48.13;;;;;;;3.49;100.00;101584.88;5053433;28;20035;-45
2022/11/05 07:02:48;;;;;;;78.00;47.38;;;;;;;3.45;100.00;101596.53;5056052;28;20044;-44
2022/11/05 07:05:15;;;;;;;83.68;47.05;;;;;;;3.45;100.00;101584.66;5055337;28;20025;-45
2022/11/05 07:07:41;;;;;;;85.53;48.88;;;;;;;3.45;100.00;101586.34;5056207;28;20424;-46
2022/11/05 07:10:11;;;;;;;85.68;47.90;;;;;;;3.46;100.00;101595.75;5055808;28;20025;-46
2022/11/05 07:12:36;;;;;;;91.30;49.42;;;;;;;3.44;100.00;101603.25;5055465;28;20469;-47
2022/11/05 07:15:01;;;;;;;81.63;48.78;;;;;;;3.47;100.00;101602.59;5055770;28;20108;-47
2022/11/05 07:17:27;;;;;;;81.55;49.88;;;;;;;3.49;100.00;101595.09;5055646;28;20037;-47
2022/11/05 07:19:52;;;;;;;90.03;48.17;;;;;;;3.50;100.00;101602.84;5055333;28;20029;-45
2022/11/05 07:22:17;;;;;;;83.25;47.33;;;;;;;3.54;100.00;101599.72;5055834;28;20120;-45
2022/11/05 07:24:45;;;;;;;83.63;48.92;;;;;;;3.57;100.00;101604.13;5055648;28;20484;-47
2022/11/05 07:27:11;;;;;;;83.35;46.45;;;;;;;3.63;100.00;101605.44;5054894;28;20025;-46
2022/11/05 07:29:36;;;;;;;76.35;46.00;;;;;;;3.69;100.00;101609.19;5055548;28;20123;-46
2022/11/05 07:32:02;;;;;;;83.40;45.65;;;;;;;3.73;100.00;101611.19;5055039;28;20546;-48
2022/11/05 07:34:28;;;;;;;77.70;43.92;;;;;;;3.77;100.00;101619.16;5055237;28;20036;-47
2022/11/05 07:36:53;;;;;;;80.00;45.42;;;;;;;3.82;100.00;101618.59;5055329;28;20461;-46
2022/11/05 07:39:18;;;;;;;71.88;43.28;;;;;;;3.88;100.00;101622.44;5055347;28;20021;-44
2022/11/05 07:41:43;;;;;;;75.82;44.08;;;;;;;3.92;100.00;101619.31;5054889;28;20029;-47
2022/11/05 07:44:10;;;;;;;69.50;43.65;;;;;;;4.01;100.00;101618.19;5055195;28;20104;-46
2022/11/05 07:46:35;;;;;;;76.50;43.80;;;;;;;4.07;100.00;101623.72;5055039;28;20059;-47
2022/11/05 07:49:01;;;;;;;69.05;42.60;;;;;;;4.15;100.00;101619.16;5054746;28;20028;-47
2022/11/05 07:51:26;;;;;;;77.32;44.50;;;;;;;4.21;100.00;101625.56;5055428;28;20424;-46
2022/11/05 07:53:51;;;;;;;74.40;42.85;;;;;;;4.25;100.00;101624.09;5054713;28;20017;-46
2022/11/05 07:56:17;;;;;;;68.28;40.83;;;;;;;4.32;100.00;101626.25;5054842;28;20553;-45
2022/11/05 07:58:42;;;;;;;72.22;41.80;;;;;;;4.39;100.00;101623.34;5055039;28;20025;-46
2022/11/05 08:01:07;;;;;;;68.75;40.58;;;;;;;4.49;100.00;101634.19;5054002;28;20028;-45
2022/11/05 08:03:33;;;;;;;74.60;41.25;;;;;;;4.54;100.00;101626.03;5055229;28;20025;-46
2022/11/05 08:05:58;;;;;;;66.72;38.83;;;;;;;4.65;100.00;101621.66;5054951;28;20112;-44
2022/11/05 08:08:24;;;;;;;67.40;41.22;;;;;;;4.72;100.00;101622.94;5054365;28;20024;-46
2022/11/05 08:10:50;;;;;;;66.30;38.40;;;;;;;4.81;100.00;101628.63;5054975;28;20021;-48
2022/11/05 08:13:16;;;;;;;65.80;39.05;;;;;;;4.86;100.00;101621.28;5053489;28;20033;-48
2022/11/05 08:15:42;;;;;;;67.32;38.50;;;;;;;4.97;100.00;101629.63;5054136;28;20047;-47
2022/11/05 08:18:14;;;;;;;66.20;39.50;;;;;;;5.05;100.00;101619.13;5054733;28;20025;-46
2022/11/05 08:20:41;;;;;;;67.90;38.28;;;;;;;5.16;100.00;101622.38;5054633;28;20040;-47
2022/11/05 08:23:07;;;;;;;70.40;37.83;;;;;;;5.22;100.00;101617.66;5054031;28;20051;-43
2022/11/05 08:25:32;;;;;;;61.95;36.42;;;;;;;5.34;100.00;101622.66;5054489;28;20033;-44
2022/11/05 08:28:00;;;;;;;66.22;35.88;;;;;;;5.42;100.00;101620.59;5053736;28;20063;-47
2022/11/05 08:30:25;;;;;;;;;;;;;;;5.50;100.00;101619.41;5054494;28;20052;-47
2022/11/05 08:32:56;;;;;;;65.25;34.15;;;;;;;5.50;100.00;101619.41;5054570;28;19978;-46
2022/11/05 08:35:21;;;;;;;59.25;34.80;;;;;;;5.49;100.00;101626.97;5054251;28;20425;-48
2022/11/05 08:37:46;;;;;;;64.85;35.28;;;;;;;5.48;100.00;101626.09;5053740;28;20122;-46
2022/11/05 08:40:12;;;;;;;70.75;38.38;;;;;;;5.51;100.00;101625.41;5054119;28;20032;-47
2022/11/05 08:42:37;;;;;;;67.10;37.63;;;;;;;5.56;100.00;101636.78;5054021;28;20041;-48
2022/11/05 08:45:02;;;;;;;66.97;37.97;;;;;;;5.59;100.00;101632.75;5053324;28;20029;-46
2022/11/05 08:47:28;;;;;;;66.47;38.10;;;;;;;5.67;100.00;101633.25;5054021;28;20095;-46
2022/11/05 08:49:53;;;;;;;72.45;39.67;;;;;;;5.68;100.00;101622.22;5053909;28;20158;-45
2022/11/05 08:52:19;;;;;;;72.25;39.78;;;;;;;5.75;100.00;101632.03;5053648;28;20366;-46
2022/11/05 08:54:44;;;;;;;64.57;36.25;;;;;;;5.81;100.00;101626.44;5054203;28;20029;-46
2022/11/05 08:57:09;;;;;;;67.30;37.40;;;;;;;5.88;100.00;101626.00;5052785;28;20029;-48
2022/11/05 08:59:35;;;;;;;62.03;36.45;;;;;;;5.96;100.00;101628.16;5053976;28;20028;-47
2022/11/05 09:02:00;;;;;;;65.68;37.90;;;;;;;6.09;100.00;101623.00;5053836;28;20044;-46
2022/11/05 09:04:25;;;;;;;67.38;40.10;;;;;;;6.28;100.00;101624.13;5053204;28;20021;-47
2022/11/05 09:06:51;;;;;;;63.97;36.50;;;;;;;6.53;100.00;101632.47;5053812;28;20020;-46
2022/11/05 09:09:16;;;;;;;71.72;40.92;;;;;;;6.88;100.00;101631.06;5053674;28;20034;-46
2022/11/05 09:11:41;;;;;;;59.08;34.72;;;;;;;7.02;100.00;101625.81;5052991;28;20493;-43
2022/11/05 09:14:07;;;;;;;77.93;45.95;;;;;;;7.59;100.00;101628.94;5053359;28;20051;-48
2022/11/05 09:16:35;;;;;;;61.22;33.47;;;;;;;7.73;100.00;101628.03;5053433;28;20028;-43
2022/11/05 09:19:02;;;;;;;52.53;31.52;;;;;;;8.10;100.00;101623.97;5052942;28;20035;-43
2022/11/05 09:21:27;;;;;;;57.90;30.05;;;;;;;8.34;100.00;101633.72;5053497;28;20029;-46
2022/11/05 09:23:53;;;;;;;46.67;27.10;;;;;;;8.47;100.00;101631.03;5052719;28;20033;-45
2022/11/05 09:26:18;;;;;;;48.17;26.98;;;;;;;8.77;100.00;101629.94;5052931;28;20028;-43
2022/11/05 09:28:43;;;;;;;43.53;24.70;;;;;;;8.86;100.00;101626.09;5053675;28;20025;-47
2022/11/05 09:31:10;;;;;;;43.85;23.92;;;;;;;9.04;100.00;101622.69;5053050;28;20033;-44
2022/11/05 09:33:37;;;;;;;39.13;24.60;;;;;;;9.26;100.00;101619.44;5052767;28;20365;-47
2022/11/05 09:36:04;;;;;;;35.65;22.60;;;;;;;9.28;98.11;101625.50;5053007;28;20591;-45
2022/11/05 09:38:31;;;;;;;44.85;24.73;;;;;;;9.51;100.00;101639.47;5053106;28;20029;-45
2022/11/05 09:41:05;;;;;;;43.42;23.63;;;;;;;9.80;97.62;101628.75;5052314;28;20103;-47
2022/11/05 09:43:43;;;;;;;38.80;22.33;;;;;;;9.95;96.88;101631.13;5053497;28;20025;-47
2022/11/05 09:46:16;;;;;;;36.58;22.45;;;;;;;10.21;97.70;101638.34;5052569;28;20136;-47
2022/11/05 09:48:47;;;;;;;42.50;21.20;;;;;;;10.31;91.11;101644.75;5052669;28;20098;-48
2022/11/05 09:51:14;;;;;;;40.67;19.65;;;;;;;10.26;89.31;101647.94;5052833;28;20484;-45
2022/11/05 09:53:41;;;;;;;36.63;19.58;;;;;;;10.44;91.06;101653.91;5052252;28;20154;-47
2022/11/05 09:56:19;;;;;;;39.50;18.27;;;;;;;10.56;88.45;101650.13;5052735;28;20460;-47
2022/11/05 09:58:47;;;;;;;;;;;;;;;10.98;92.22;101653.59;5053299;28;20052;-48
2022/11/05 10:01:17;;;;;;;31.98;16.65;;;;;;;10.78;84.78;101655.38;5052017;28;19916;-45
2022/11/05 10:03:49;;;;;;;34.38;16.58;;;;;;;10.47;84.37;101658.31;5052716;28;20484;-47
2022/11/05 10:06:20;;;;;;;36.10;18.13;;;;;;;10.47;86.63;101660.91;5052237;28;20033;-47
2022/11/05 10:08:51;;;;;;;32.88;17.83;;;;;;;10.30;87.06;101660.16;5052316;28;20029;-47
2022/11/05 10:11:26;;;;;;;32.92;17.92;;;;;;;10.24;89.19;101665.91;5052391;28;20465;-46
2022/11/05 10:14:11;;;;;;;30.15;16.38;;;;;;;10.21;88.25;101669.25;5052432;28;20441;-44
2022/11/05 10:16:41;;;;;;;36.22;17.52;;;;;;;10.18;90.51;101663.06;5052039;28;20025;-46
2022/11/05 10:19:20;;;;;;;30.85;17.15;;;;;;;10.10;88.67;101673.03;5052499;28;20017;-46
2022/11/05 10:21:46;;;;;;;33.33;17.08;;;;;;;10.02;89.24;101675.25;5051663;28;20473;-47
2022/11/05 10:24:17;;;;;;;34.20;17.83;;;;;;;10.04;89.55;101676.22;5052355;28;20561;-46
2022/11/05 10:26:49;;;;;;;29.38;15.38;;;;;;;9.93;88.15;101682.56;5052434;28;20158;-44
2022/11/05 10:29:28;;;;;;;30.00;15.77;;;;;;;9.96;88.36;101684.41;5051552;28;20421;-46
2022/11/05 10:31:58;;;;;;;34.55;16.77;;;;;;;9.93;87.21;101684.25;5052458;28;20025;-45
2022/11/05 10:34:32;;;;;;;36.97;17.00;;;;;;;9.85;87.97;101687.38;5052352;28;20024;-46
2022/11/05 10:36:58;;;;;;;32.78;16.70;;;;;;;9.86;88.73;101689.16;5055602;28;20171;-46
2022/11/05 10:39:26;;;;;;;29.38;16.50;;;;;;;9.81;88.04;101685.47;5056651;28;20103;-46
2022/11/05 10:42:16;;;;;;;35.05;18.08;;;;;;;9.81;89.67;101688.06;5056541;28;20099;-47
2022/11/05 10:45:06;;;;;;;38.38;17.80;;;;;;;9.77;90.74;101680.97;5056100;28;20064;-47
2022/11/05 10:47:47;;;;;;;35.47;17.20;;;;;;;9.74;91.44;101683.41;5056227;28;20087;-45
2022/11/05 10:50:17;;;;;;;31.00;16.73;;;;;;;9.60;88.49;101682.75;5055756;28;20036;-46
2022/11/05 10:53:10;;;;;;;36.15;17.35;;;;;;;9.59;90.05;101677.56;5056542;28;20021;-48
2022/11/05 10:55:40;;;;;;;34.55;17.33;;;;;;;9.52;89.77;101672.09;5048193;28;20041;-46
2022/11/05 10:58:14;;;;;;;38.05;18.00;;;;;;;9.54;90.92;101665.34;5055484;28;20029;-47
2022/11/05 11:00:41;;;;;;;50.15;28.73;;;;;;;9.52;90.27;101672.09;5056422;28;20100;-46
2022/11/05 11:03:34;;;;;;;37.15;19.30;;;;;;;9.56;91.26;101681.72;5055823;28;20123;-47
2022/11/05 11:06:25;;;;;;;41.38;19.20;;;;;;;9.58;89.89;101675.78;5055381;28;20021;-45
2022/11/05 11:08:53;;;;;;;44.25;26.58;;;;;;;9.65;90.47;101677.84;5055946;28;20028;-44
2022/11/05 11:11:37;;;;;;;48.13;22.42;;;;;;;9.69;91.64;101679.75;5055409;28;20112;-46
2022/11/05 11:14:11;;;;;;;43.40;20.35;;;;;;;9.67;89.77;101676.22;5055665;28;20051;-46
2022/11/05 11:16:42;;;;;;;43.38;19.98;;;;;;;9.65;88.52;101664.97;5055767;28;20027;-45
2022/11/05 11:19:29;;;;;;;39.45;21.25;;;;;;;9.70;90.30;101676.38;5055313;28;20025;-45
2022/11/05 11:22:04;;;;;;;47.53;21.92;;;;;;;9.65;89.75;101672.69;5055432;28;20051;-48
2022/11/05 11:24:41;;;;;;;49.55;23.88;;;;;;;9.76;90.15;101666.38;5055766;28;20029;-48
2022/11/05 11:27:21;;;;;;;45.50;24.50;;;;;;;9.80;90.52;101663.13;5054941;28;20025;-46
2022/11/05 11:30:04;;;;;;;49.75;21.38;;;;;;;9.87;90.26;101669.41;5056002;28;20025;-47
2022/11/05 11:32:36;;;;;;;85.65;44.97;;;;;;;9.95;89.85;101656.88;5055212;28;20040;-44
2022/11/05 11:35:03;;;;;;;51.60;23.77;;;;;;;9.86;89.33;101653.09;5055611;28;20048;-48
2022/11/05 11:37:33;;;;;;;41.13;21.60;;;;;;;9.88;88.50;101656.59;5055335;28;20079;-47
2022/11/05 11:40:04;;;;;;;42.92;21.70;;;;;;;9.89;88.84;101658.38;5054744;28;20025;-47
2022/11/05 11:42:35;;;;;;;44.88;22.13;;;;;;;10.00;87.56;101663.13;5055815;28;20025;-44
2022/11/05 11:45:18;;;;;;;38.78;21.52;;;;;;;10.24;88.13;101659.88;5054954;28;20025;-45
2022/11/05 11:47:46;;;;;;;41.25;20.55;;;;;;;10.18;87.27;101658.78;5054318;28;20044;-47
2022/11/05 11:50:41;;;;;;;40.38;20.95;;;;;;;10.51;88.62;101661.13;5055062;28;20048;-47
2022/11/05 11:53:18;;;;;;;47.60;21.63;;;;;;;10.92;85.21;101668.81;5041619;28;20040;-47
2022/11/05 11:55:58;;;;;;;47.65;19.25;;;;;;;11.24;82.49;101660.63;5055358;28;20111;-49
2022/11/05 11:58:41;;;;;;;42.15;21.48;;;;;;;11.49;82.62;101668.53;5054953;28;20025;-46
2022/11/05 12:01:44;;;;;;;38.40;18.42;;;;;;;11.53;81.96;101662.66;5054164;28;20362;-47
2022/11/05 12:04:18;;;;;;;47.38;22.20;;;;;;;11.47;79.73;101654.69;5054966;28;20035;-45